Time;durP1;ratioP1;P1;durP2;ratioP2;P2;SDS_P1;SDS_P2;PMS_P1;PMS_P2;Temp;Humidity;BMP_temperature;BMP_pressure;BME280_temperature;BME280_humidity;BME280_pressure;Samples;Min_cycle;Max_cycle;Signal;HPM_P1;HPM_P2
2023/12/10 00:01:15;;;;;;;27.77;4.20;;;;;;;-144.05;73.70;56993.25;5024418;28;20487;-79
2023/12/10 00:03:41;;;;;;;27.50;4.28;;;;;;;-144.05;72.98;56991.13;5024840;28;20036;-79
2023/12/10 00:06:08;;;;;;;22.40;4.05;;;;;;;-144.05;72.70;56978.41;5017156;28;20096;-78
2023/12/10 00:08:34;;;;;;;35.00;5.03;;;;;;;-144.05;72.33;57014.50;5014818;28;20041;-78
2023/12/10 00:11:01;;;;;;;28.20;5.13;;;;;;;-144.05;72.37;56969.91;5016692;28;20040;-77
2023/12/10 00:13:27;;;;;;;39.17;5.50;;;;;;;-144.05;72.19;56974.16;5016434;28;20033;-78
2023/12/10 00:15:53;;;;;;;23.70;5.80;;;;;;;-144.05;72.09;57006.00;5016837;28;20018;-79
2023/12/10 00:18:19;;;;;;;28.73;4.97;;;;;;;-144.05;71.79;57018.75;5015824;28;20058;-79
2023/12/10 00:20:46;;;;;;;28.70;4.35;;;;;;;-144.05;71.17;57031.50;5016343;28;20037;-77
2023/12/10 00:23:12;;;;;;;27.02;5.22;;;;;;;-144.05;71.14;57008.13;5017149;28;20026;-79
2023/12/10 00:25:39;;;;;;;26.35;4.80;;;10.90;99.90;;;-144.05;70.33;57010.25;5018062;28;20022;-78
2023/12/10 00:28:05;;;;;;;30.15;4.78;;;;;;;-144.05;70.75;57012.38;5018567;28;20068;-79
2023/12/10 00:30:32;;;;;;;29.15;5.03;;;;;;;-144.05;70.46;57001.75;5017520;28;20056;-78
2023/12/10 00:32:58;;;;;;;23.98;3.90;;;;;;;-144.05;70.07;56986.91;5018123;28;20049;-78
2023/12/10 00:35:24;;;;;;;28.92;5.63;;;;;;;-144.05;70.25;56997.50;5017658;28;20022;-79
2023/12/10 00:37:50;;;;;;;28.33;4.47;;;;;;;-144.05;69.46;57001.75;5017431;28;20399;-79
2023/12/10 00:40:17;;;;;;;26.52;4.60;;;10.90;99.90;;;-144.05;69.34;57012.38;5017811;28;20052;-78
2023/12/10 00:42:43;;;;;;;30.27;4.82;;;;;;;-144.05;69.57;57012.38;5017652;28;20030;-78
2023/12/10 00:45:09;;;;;;;21.52;4.07;;;;;;;-144.05;69.29;57003.88;5018439;28;20562;-79
2023/12/10 00:47:37;;;;;;;26.88;4.07;;;;;;;-144.05;69.37;56989.00;5017818;28;20063;-79
2023/12/10 00:50:05;;;;;;;33.17;4.63;;;11.70;99.90;;;-144.05;68.92;56984.78;5023081;22;20074;-86
2023/12/10 00:52:32;;;;;;;20.05;3.67;;;;;;;-144.05;69.13;56995.38;4994564;28;20521;-85
2023/12/10 00:54:58;;;;;;;28.92;4.30;;;;;;;-144.05;68.65;56995.38;4994207;28;20038;-84
2023/12/10 00:57:25;;;;;;;23.85;4.22;;;;;;;-144.05;68.84;56997.50;4993684;28;20054;-85
2023/12/10 00:59:51;;;;;;;32.70;5.90;;;;;;;-144.05;68.87;56997.50;4989171;28;20381;-84
2023/12/10 01:02:17;;;;;;;35.78;4.88;;;;;;;-144.05;68.67;56989.00;4973407;28;20035;-87
2023/12/10 01:04:43;;;;;;;32.58;6.30;;;;;;;-144.05;69.41;57012.38;5007655;28;20039;-86
2023/12/10 01:07:12;;;;;;;22.85;4.30;;;;;;;-144.05;68.79;57023.00;5017005;28;20054;-84
2023/12/10 01:09:38;;;;;;;27.90;4.03;;;;;;;-144.05;68.86;57006.00;5014769;28;20042;-86
2023/12/10 01:12:07;;;;;;;29.27;3.90;;;;;;;-144.05;68.40;56984.78;4994831;28;20030;-85
2023/12/10 01:14:33;;;;;;;20.85;4.63;;;;;;;-144.05;68.81;57014.50;4991896;28;20041;-85
2023/12/10 01:16:59;;;;;;;23.40;4.35;;;;;;;-144.05;68.35;56993.25;5008479;28;20122;-86
2023/12/10 01:19:27;;;;;;;25.38;4.63;;;;;;;-144.05;68.42;56997.50;5007806;28;20138;-86
2023/12/10 01:21:53;;;;;;;23.95;4.75;;;;;;;-144.05;68.67;56997.50;4994217;28;20084;-85
2023/12/10 01:24:20;;;;;;;35.35;5.38;;;10.20;99.90;;;-144.05;68.40;57003.88;5008893;28;20035;-86
2023/12/10 01:26:46;;;;;;;23.80;4.18;;;;;;;-144.05;68.15;56986.91;4992670;28;20023;-87
2023/12/10 01:29:14;;;;;;;25.52;5.05;;;;;;;-144.05;68.17;56999.63;5012544;28;20089;-87
2023/12/10 01:31:41;;;;;;;30.58;4.88;;;;;;;-144.05;68.03;57001.75;5012522;28;20512;-84
2023/12/10 01:34:07;;;;;;;27.83;4.50;;;;;;;-144.05;68.05;57020.88;4998980;28;20038;-85
2023/12/10 01:36:34;;;;;;;26.50;4.68;;;;;;;-144.05;68.01;56972.03;5000184;28;20038;-87
2023/12/10 01:39:00;;;;;;;26.33;4.22;;;;;;;-144.05;67.81;56952.91;5000801;28;20070;-87
2023/12/10 01:41:27;;;;;;;25.70;5.82;;;;;;;-144.05;68.37;56986.91;5001119;28;20503;-86
2023/12/10 01:43:53;;;;;;;24.90;4.43;;;;;;;-144.05;68.20;56974.16;5001251;28;20026;-81
2023/12/10 01:46:21;;;;;;;29.83;4.40;;;;;;;-144.05;67.89;57001.75;5017506;28;20023;-88
2023/12/10 01:48:52;;;;;;;19.27;4.00;;;;;;;-144.05;67.83;56972.03;5000278;28;20118;-87
2023/12/10 01:51:18;;;;;;;27.10;4.82;;;;;;;-144.05;67.46;56974.16;5001007;28;20042;-85
2023/12/10 01:53:45;;;;;;;25.20;5.18;;;;;;;-144.05;67.74;56978.41;5001854;28;20049;-88
2023/12/10 01:56:12;;;;;;;24.00;4.20;;;;;;;-144.05;67.96;57003.88;5001208;28;20022;-85
2023/12/10 01:58:39;;;;;;;26.90;4.00;;;;;;;-144.05;68.83;57023.00;5000016;28;20117;-87
2023/12/10 02:01:15;;;;;;;28.35;4.80;;;;;;;-144.05;69.04;57006.00;5016377;28;20489;-88
2023/12/10 02:03:41;;;;;;;26.33;4.07;;;;;;;-144.05;69.29;56972.03;5021379;28;20145;-89
2023/12/10 02:06:08;;;;;;;23.95;4.45;;;;;;;-144.05;69.31;56972.03;5003819;28;20030;-86
2023/12/10 02:08:36;;;;;;;23.85;5.03;;;;;;;-144.05;69.27;56986.91;5006637;28;20105;-87
2023/12/10 02:11:03;;;;;;;21.90;3.72;;;;;;;-144.05;69.73;57027.25;5004230;28;20034;-85
2023/12/10 02:13:30;;;;;;;29.05;6.05;;;;;;;-144.05;69.18;56991.13;5011104;28;20030;-87
2023/12/10 02:15:56;;;;;;;26.17;4.50;;;;;;;-144.05;69.28;56980.53;4995409;28;20041;-85
2023/12/10 02:18:22;;;;;;;27.02;4.55;;;;;;;-144.05;69.12;57014.50;4995407;28;20030;-86
2023/12/10 02:20:49;;;;;;;29.63;4.38;;;;;;;-144.05;68.93;56991.13;4995140;28;20034;-85
2023/12/10 02:23:46;;;;;;;30.02;4.65;;;;;;;-144.05;69.12;57012.38;5006972;28;20630;-84
2023/12/10 02:26:13;;;;;;;20.27;4.07;;;;;;;-144.05;69.48;56991.13;4975906;28;20030;-85
2023/12/10 02:28:39;;;;;;;27.10;3.67;;;;;;;-144.05;70.14;57012.38;4991304;28;20121;-85
2023/12/10 02:31:05;;;;;;;25.83;5.20;;;;;;;-144.05;69.51;57006.00;4976933;28;20385;-83
2023/12/10 02:33:32;;;;;;;28.38;4.45;;;;;;;-144.05;69.50;57001.75;5000549;28;20045;-86
2023/12/10 02:35:58;;;;;;;25.75;5.00;;;;;;;-144.05;69.99;57006.00;5019377;28;20069;-78
2023/12/10 02:38:24;;;;;;;27.20;4.45;;;;;;;-144.05;70.14;56999.63;5034544;28;20038;-79
2023/12/10 02:40:51;;;;;;;20.92;4.00;;;;;;;-144.05;70.10;56982.66;5023739;28;20124;-84
2023/12/10 02:43:19;;;;;;;19.88;3.75;;;;;;;-144.05;70.84;57025.13;5013168;28;20542;-86
2023/12/10 02:45:47;;;;;;;22.92;3.78;;;;;;;-144.05;70.81;57023.00;4991411;28;20327;-85
2023/12/10 02:48:13;;;;;;;28.80;4.57;;;;;;;-144.05;70.87;56989.00;4975211;28;20030;-85
2023/12/10 02:50:39;;;;;;;22.02;3.58;;;;;;;-144.05;70.31;57016.63;4991599;28;20093;-83
2023/12/10 02:53:06;;;;;;;30.13;4.82;;;;;;;-144.05;70.55;57008.13;4976054;28;20062;-85
2023/12/10 02:55:32;;;;;;;27.00;4.30;;;;;;;-144.05;70.34;57003.88;4976222;28;20385;-85
2023/12/10 02:57:58;;;;;;;20.80;3.85;;;;;;;-144.05;70.66;57008.13;4988498;28;20038;-86
2023/12/10 03:00:24;;;;;;;26.67;5.45;;;;;;;-144.05;70.65;57016.63;5011996;28;20042;-86
2023/12/10 03:02:51;;;;;;;29.92;4.25;;;;;;;-144.05;70.80;56993.25;5013741;28;20038;-82
2023/12/10 03:05:17;;;;;;;23.42;3.80;;;;;;;-144.05;71.65;57003.88;5014608;28;20023;-85
2023/12/10 03:07:44;;;;;;;23.50;4.45;;;;;;;-144.05;71.11;56991.13;4978277;28;20056;-86
2023/12/10 03:10:10;;;;;;;20.83;3.78;;;;;;;-144.05;71.50;56993.25;4990000;28;20026;-87
2023/12/10 03:12:36;;;;;;;19.73;4.03;;;;;;;-144.05;71.06;56978.41;4993169;28;20023;-82
2023/12/10 03:15:03;;;;;;;29.02;4.32;;;;;;;-144.05;70.83;56986.91;4981793;28;20039;-85
2023/12/10 03:17:30;;;;;;;27.30;4.15;;;;;;;-144.05;70.78;57014.50;4975038;28;20398;-85
2023/12/10 03:19:56;;;;;;;16.88;3.42;;;;;;;-144.05;70.98;57027.25;4973648;28;20030;-87
2023/12/10 03:22:22;;;;;;;29.38;3.90;;;;;;;-144.05;70.58;57012.38;4975027;28;20063;-85
2023/12/10 03:24:48;;;;;;;18.33;4.50;;;;;;;-144.05;69.79;56989.00;4973620;28;20053;-85
2023/12/10 03:27:15;;;;;;;17.30;4.05;;;;;;;-144.05;69.41;57014.50;4974918;28;20027;-85
2023/12/10 03:29:41;;;;;;;24.73;3.72;;;;;;;-144.05;69.41;56967.78;4989693;28;20027;-86
2023/12/10 03:32:07;;;;;;;24.65;4.40;;;;;;;-144.05;69.99;57027.25;4979037;28;20046;-84
2023/12/10 03:34:34;;;;;;;23.02;3.28;;;;;;;-144.05;70.57;57031.50;5009229;28;20455;-85
2023/12/10 03:37:00;;;;;;;31.95;3.83;;;;;;;-144.05;71.13;56995.38;4992084;28;20120;-86
2023/12/10 03:39:26;;;;;;;27.88;4.43;;;;;;;-144.05;71.68;57014.50;5005543;28;20093;-85
2023/12/10 03:41:53;;;;;;;20.38;3.80;;;;;;;-144.05;72.10;57008.13;4993404;28;20030;-86
2023/12/10 03:44:19;;;;;;;21.63;3.78;;;;;;;-144.05;72.12;57012.38;4992516;28;20034;-84
2023/12/10 03:46:46;;;;;;;26.52;4.45;;;;;;;-144.05;72.80;57001.75;4993618;28;20026;-83
2023/12/10 03:49:12;;;;;;;26.75;4.47;;;;;;;-144.05;73.84;57018.75;4992156;28;20118;-84
2023/12/10 03:51:39;;;;;;;18.38;3.22;;;;;;;-144.05;74.27;57016.63;4994317;28;20030;-87
2023/12/10 03:54:05;;;;;;;18.92;3.30;;;;;;;-144.05;75.02;57006.00;4992048;28;20026;-86
2023/12/10 03:56:31;;;;;;;22.90;3.28;;;;;;;-144.05;75.08;57031.50;4992369;28;20101;-85
2023/12/10 03:58:57;;;;;;;16.58;3.22;;;;;;;-144.05;75.62;57014.50;4993273;28;20053;-84
2023/12/10 04:01:24;;;;;;;16.48;2.92;;;;;;;-144.05;75.92;56993.25;4992019;28;20035;-86
2023/12/10 04:03:50;;;;;;;21.15;3.67;;;;;;;-144.05;75.80;56993.25;4993187;28;20400;-84
2023/12/10 04:06:16;;;;;;;18.45;2.92;;;;;;;-144.05;77.16;57018.75;4991894;28;20027;-84
2023/12/10 04:08:43;;;;;;;17.88;3.67;;;;;;;-144.05;77.46;57008.13;4992803;28;20026;-83
2023/12/10 04:11:10;;;;;;;29.45;3.35;;;;;;;-144.05;77.50;57016.63;5008276;28;20034;-85
2023/12/10 04:13:36;;;;;;;21.60;3.38;;;;;;;-144.05;78.03;57014.50;4993048;28;20034;-87
2023/12/10 04:16:02;;;;;;;21.08;3.72;;;;;;;-144.05;77.97;57025.13;5004717;28;20078;-84
2023/12/10 04:18:29;;;;;;;19.40;4.30;;;;;;;-144.05;78.12;57003.88;4991725;28;20063;-84
2023/12/10 04:20:55;;;;;;;26.52;3.85;;;;;;;-144.05;78.53;56984.78;5007908;28;20098;-85
2023/12/10 04:23:22;;;;;;;17.80;2.95;;;;;;;-144.05;78.79;57029.38;4991963;28;20085;-86
2023/12/10 04:25:48;;;;;;;14.77;3.03;;;;;;;-144.05;79.32;57018.75;4992959;28;20038;-85
2023/12/10 04:28:14;;;;;;;27.15;4.18;;;;;;;-144.05;79.67;57008.13;5007881;28;20044;-85
2023/12/10 04:30:40;;;;;;;25.05;3.67;;;;;;;-144.05;80.15;57010.25;5007919;28;20030;-84
2023/12/10 04:33:07;;;;;;;18.67;3.17;;;;;;;-144.05;80.17;57001.75;4992699;28;20030;-84
2023/12/10 04:35:33;;;;;;;18.85;2.95;;;;;;;-144.05;80.32;56991.13;5007447;28;20484;-84
2023/12/10 04:37:59;;;;;;;28.30;3.90;;;;;;;-144.05;80.35;56984.78;5007558;28;20112;-84
2023/12/10 04:40:25;;;;;;;19.13;3.45;;;;;;;-144.05;79.76;57001.75;4992785;28;20051;-87
2023/12/10 04:42:52;;;;;;;27.00;3.00;;;;;;;-144.05;80.25;57003.88;4992924;28;20054;-85
2023/12/10 04:45:18;;;;;;;25.63;4.22;;;;;;;-144.05;80.17;57027.25;5009152;28;20042;-86
2023/12/10 04:47:44;;;;;;;26.08;3.60;;;;;;;-144.05;81.08;57031.50;5008389;28;20033;-86
2023/12/10 04:50:11;;;;;;;27.42;4.18;;;;;;;-144.05;81.10;57027.25;4992176;28;20467;-87
2023/12/10 04:52:38;;;;;;;22.15;3.65;;;;;;;-144.05;81.03;57008.13;4994515;28;20034;-86
2023/12/10 04:55:05;;;;;;;24.65;3.63;;;;;;;-144.05;81.84;57033.63;4993901;28;20484;-88
2023/12/10 04:57:31;;;;;;;27.67;5.55;;;;;;;-144.05;82.17;57012.38;4995296;28;20042;-86
2023/12/10 04:59:57;;;;;;;22.10;2.90;;;;;;;-144.05;81.46;57012.38;5008453;28;20058;-83
2023/12/10 05:02:23;;;;;;;21.23;3.63;;;;;;;-144.05;81.86;57020.88;5024588;28;20045;-85
2023/12/10 05:04:50;;;;;;;19.42;4.30;;;;;;;-144.05;81.24;57014.50;4991314;28;20038;-84
2023/12/10 05:07:16;;;;;;;22.75;3.53;;;;;;;-144.05;81.24;57029.38;4991174;28;20445;-86
2023/12/10 05:09:42;;;;;;;21.73;4.18;;;;;;;-144.05;81.36;57001.75;4994813;28;20436;-85
2023/12/10 05:12:09;;;;;;;24.13;4.05;;;;;;;-144.05;81.25;57016.63;4996799;28;20477;-85
2023/12/10 05:14:35;;;;;;;20.00;3.20;;;;;;;-144.05;81.52;57012.38;4995246;28;20030;-85
2023/12/10 05:17:01;;;;;;;23.73;4.20;;;;;;;-144.05;81.74;57027.25;4996880;28;20057;-86
2023/12/10 05:19:27;;;;;;;20.48;3.45;;;;;;;-144.05;80.83;56986.91;5011673;28;20041;-88
2023/12/10 05:21:54;;;;;;;21.98;3.80;;;;;;;-144.05;80.49;57027.25;4995298;28;20026;-84
2023/12/10 05:24:20;;;;;;;17.30;3.10;;;;;;;-144.05;81.27;57018.75;4994986;28;20026;-85
2023/12/10 05:26:47;;;;;;;35.40;4.55;;;;;;;-144.05;81.22;57035.75;4994940;28;20123;-85
2023/12/10 05:29:16;;;;;;;21.75;4.07;;;;;;;-144.05;80.83;57027.25;4996805;28;20477;-87
2023/12/10 05:31:43;;;;;;;29.85;5.53;;;;;;;-144.05;80.49;57018.75;4994661;28;20499;-85
2023/12/10 05:34:09;;;;;;;27.13;3.80;;;;;;;-144.05;80.66;57020.88;4995021;28;20034;-86
2023/12/10 05:36:37;;;;;;;23.67;3.83;;;;;;;-144.05;80.84;57003.88;4994932;28;20101;-86
2023/12/10 05:39:04;;;;;;;24.80;3.90;;;;;;;-144.05;80.47;57027.25;4996525;28;20559;-87
2023/12/10 05:41:30;;;;;;;25.00;4.03;;;;;;;-144.05;80.09;57020.88;4995011;28;20480;-85
2023/12/10 05:43:56;;;;;;;22.77;3.65;;;;;;;-144.05;79.89;57016.63;4995711;28;20183;-83
2023/12/10 05:46:23;;;;;;;14.90;3.33;;;;;;;-144.05;79.54;57003.88;4993621;28;20103;-83
2023/12/10 05:48:49;;;;;;;20.30;3.33;;;;;;;-144.05;78.92;57031.50;4977496;28;20063;-84
2023/12/10 05:51:15;;;;;;;23.48;3.83;;;;;;;-144.05;79.50;56980.53;4994117;28;20031;-86
2023/12/10 05:53:41;;;;;;;30.58;6.55;;;;;;;-144.05;79.42;57001.75;4977424;28;20342;-85
2023/12/10 05:56:09;;;;;;;25.33;4.20;;;;;;;-144.05;79.41;57001.75;4983821;28;20037;-85
2023/12/10 05:58:35;;;;;;;17.13;3.20;;;;;;;-144.05;79.37;57003.88;5010496;28;20039;-83
2023/12/10 06:01:02;;;;;;;34.88;4.93;;;;;;;-144.05;79.37;57020.88;4997894;28;20037;-85
2023/12/10 06:03:28;;;;;;;20.75;3.38;;;;;;;-144.05;79.30;56980.53;4996306;28;20130;-86
2023/12/10 06:05:54;;;;;;;23.02;4.13;;;;;;;-144.05;79.43;57048.50;4995941;28;20022;-84
2023/12/10 06:08:21;;;;;;;23.58;3.33;;;;;;;-144.05;79.39;57027.25;4995701;28;20033;-82
2023/12/10 06:10:47;;;;;;;16.30;2.75;;;;;;;-144.05;79.75;56984.78;4996819;28;20092;-82
2023/12/10 06:13:13;;;;;;;20.23;4.63;;;;;;;-144.05;79.42;57031.50;4997841;28;20022;-86
2023/12/10 06:15:40;;;;;;;18.38;3.20;;;;;;;-144.05;78.90;57016.63;4997303;28;20038;-85
2023/12/10 06:18:06;;;;;;;23.35;3.55;;;;;;;-144.05;79.00;56980.53;5012715;28;20038;-85
2023/12/10 06:20:34;;;;;;;23.67;4.28;;;;;;;-144.05;78.01;57023.00;4995069;28;20149;-85
2023/12/10 06:23:00;;;;;;;26.17;5.13;;;;;;;-144.05;78.15;57031.50;4997911;28;20058;-86
2023/12/10 06:25:26;;;;;;;20.02;3.72;;;;;;;-144.05;77.85;57029.38;4996662;28;20026;-83
2023/12/10 06:27:54;;;;;;;19.90;3.55;;;;;;;-144.05;77.90;56997.50;4996506;28;20125;-84
2023/12/10 06:30:20;;;;;;;24.23;3.45;;;;;;;-144.05;77.96;57020.88;5013637;28;20492;-86
2023/12/10 06:32:46;;;;;;;15.82;3.25;;;;;;;-144.05;77.33;57008.13;5009580;28;20030;-86
2023/12/10 06:35:13;;;;;;;14.10;2.92;;;;;;;-144.05;76.97;57006.00;4976138;28;20085;-85
2023/12/10 06:37:39;;;;;;;25.08;3.97;;;;;;;-144.05;76.52;56986.91;4985831;28;20525;-86
2023/12/10 06:40:07;;;;;;;18.70;3.67;;;;;;;-144.05;76.67;56974.16;4996848;28;20030;-82
2023/12/10 06:42:35;;;;;;;15.38;3.85;;;;;;;-144.05;77.16;57018.75;5000527;28;20526;-82
2023/12/10 06:45:03;;;;;;;17.60;3.35;;;;;;;-144.05;76.73;57010.25;4995468;28;20034;-85
2023/12/10 06:47:29;;;;;;;16.95;3.58;;;;;;;-144.05;76.79;56991.13;4993126;28;20034;-86
2023/12/10 06:49:55;;;;;;;19.55;2.70;;;;;;;-144.05;76.89;56989.00;4997339;28;20121;-84
2023/12/10 06:52:22;;;;;;;18.30;3.80;;;;;;;-144.05;76.81;57033.63;5009249;28;20030;-84
2023/12/10 06:54:48;;;;;;;17.77;3.15;;;;;;;-144.05;76.56;56984.78;5015947;28;20034;-79
2023/12/10 06:57:14;;;;;;;26.00;3.72;;;;;;;-144.05;76.76;57020.88;5018403;28;20042;-82
2023/12/10 06:59:41;;;;;;;23.50;4.03;;;;;;;-144.05;76.47;56974.16;5009880;28;20146;-86
2023/12/10 07:02:07;;;;;;;19.00;3.78;;;;;;;-144.05;76.68;57008.13;4997883;28;20116;-85
2023/12/10 07:04:33;;;;;;;20.35;3.83;;;;;;;-144.05;76.65;57003.88;5011524;28;20026;-90
2023/12/10 07:07:00;;;;;;;15.63;3.63;;;;;;;-144.05;76.61;56976.28;5015539;28;20128;-88
2023/12/10 07:09:26;;;;;;;16.52;3.10;;;;;;;-144.05;75.42;57001.75;5014184;28;20036;-81
2023/12/10 07:11:52;;;;;;;19.45;3.38;;;;;;;-144.05;75.28;57029.38;5015587;28;20108;-82
2023/12/10 07:14:18;;;;;;;24.50;3.53;;;;;;;-144.05;75.45;56982.66;5015465;28;20064;-84
2023/12/10 07:16:45;;;;;;;16.45;2.92;;;;;;;-144.05;74.82;57031.50;5013903;28;20053;-84
2023/12/10 07:19:11;;;;;;;25.13;3.30;;;;;;;-144.05;73.89;57010.25;5008319;28;20125;-84
2023/12/10 07:21:38;;;;;;;16.05;3.67;;;;;;;-144.05;73.30;57006.00;5010872;28;20064;-84
2023/12/10 07:24:05;;;;;;;24.15;4.07;;;;;;;-144.05;72.17;57016.63;4995393;28;20026;-82
2023/12/10 07:26:31;;;;;;;24.90;3.65;;;;;;;-144.05;72.33;56995.38;5011047;28;20031;-86
2023/12/10 07:28:57;;;;;;;12.82;3.15;;;;;;;-144.05;72.23;56997.50;4994886;28;20555;-85
2023/12/10 07:31:24;;;;;;;32.28;4.07;;;;;;;-144.05;72.21;56991.13;4996596;28;20030;-84
2023/12/10 07:33:50;;;;;;;26.02;3.28;;;;;;;-144.05;71.61;57006.00;4995206;28;20031;-84
2023/12/10 07:36:17;;;;;;;15.50;2.80;;;;;;;-144.05;71.52;56989.00;4995904;28;20041;-87
2023/12/10 07:38:43;;;;;;;16.02;2.85;;;;;;;-144.05;71.49;57008.13;4995246;28;20037;-88
2023/12/10 07:41:10;;;;;;;22.45;3.80;;;;;;;-144.05;69.75;57012.38;5009059;28;20039;-84
2023/12/10 07:43:36;;;;;;;18.25;3.10;;;;;;;-144.05;70.00;57023.00;4994758;28;20023;-83
2023/12/10 07:46:02;;;;;;;18.90;2.50;;;;;;;-144.05;70.25;57025.13;4996089;28;20108;-84
2023/12/10 07:48:29;;;;;;;20.30;3.22;;;;;;;-144.05;70.28;57025.13;4995996;28;20030;-82
2023/12/10 07:50:55;;;;;;;15.32;3.40;;;;;;;-144.05;70.07;57010.25;4997679;28;20031;-83
2023/12/10 07:53:22;;;;;;;18.90;4.03;;;;;;;-144.05;69.92;57016.63;4992952;28;20037;-85
2023/12/10 07:55:48;;;;;;;18.98;4.47;;;;;;;-144.05;69.54;56989.00;4979839;28;20026;-84
2023/12/10 07:58:14;;;;;;;21.90;3.60;;;;;;;-144.05;69.37;57006.00;4996258;28;20046;-84
2023/12/10 08:00:41;;;;;;;19.27;3.95;;;;;;;-144.05;68.97;56986.91;4996265;28;20030;-85
2023/12/10 08:03:07;;;;;;;26.20;3.65;;;;;;;-144.05;68.33;57006.00;5015026;28;20076;-82
2023/12/10 08:05:33;;;;;;;16.60;3.55;;;;;;;-144.05;68.24;56991.13;5014912;28;20034;-81
2023/12/10 08:08:03;;;;;;;18.83;2.95;;;;;;;-144.05;68.11;56991.13;5013965;28;20116;-85
2023/12/10 08:10:29;;;;;;;15.10;2.72;;;;;;;-144.05;67.95;57020.88;5012948;28;20034;-85
2023/12/10 08:12:55;;;;;;;18.23;3.03;;;;;;;-144.05;67.90;56976.28;5003856;28;20492;-82
2023/12/10 08:15:22;;;;;;;17.25;2.95;;;;;;;-144.05;67.94;56984.78;4993738;28;20030;-84
2023/12/10 08:17:48;;;;;;;17.67;2.78;;;;;;;-144.05;67.75;57006.00;4995225;28;20559;-86
2023/12/10 08:20:14;;;;;;;17.75;3.20;;;;;;;-144.05;67.85;56982.66;4995609;28;20425;-84
2023/12/10 08:22:41;;;;;;;14.70;2.83;;;;;;;-144.05;67.56;56997.50;4994389;28;20027;-86
2023/12/10 08:25:07;;;;;;;12.25;2.95;;;;;;;-144.05;67.51;57012.38;4996127;28;20370;-86
2023/12/10 08:27:34;;;;;;;18.63;2.47;;;;;;;-144.05;67.31;56986.91;4995243;28;20026;-84
2023/12/10 08:30:00;;;;;;;18.70;3.40;;;;;;;-144.05;67.47;57003.88;4994538;28;20041;-84
2023/12/10 08:32:27;;;;;;;20.73;3.45;;;;;;;-144.05;67.18;57016.63;4996073;28;20077;-85
2023/12/10 08:34:53;;;;;;;18.42;3.72;;;;;;;-144.05;67.04;56989.00;4994429;28;20162;-85
2023/12/10 08:37:20;;;;;;;15.85;3.63;;;;;;;-144.05;67.51;57016.63;4994049;28;20034;-85
2023/12/10 08:39:49;;;;;;;16.38;2.35;;;;;;;-144.05;67.34;56978.41;4994477;28;20030;-83
2023/12/10 08:42:16;;;;;;;16.15;2.90;;;;;;;-144.05;68.01;57006.00;4996381;28;20105;-86
2023/12/10 08:44:42;;;;;;;19.13;3.30;;;;;;;-144.05;67.49;57016.63;4994503;28;20030;-82
2023/12/10 08:47:09;;;;;;;21.35;3.63;;;;;;;-144.05;67.59;57003.88;4995851;28;20027;-84
2023/12/10 08:49:35;;;;;;;14.88;2.53;;;;;;;-144.05;67.95;56989.00;4994669;28;20401;-87
2023/12/10 08:52:02;;;;;;;18.02;3.30;;;;;;;-144.05;67.61;57010.25;5005328;28;20026;-83
2023/12/10 08:54:28;;;;;;;17.63;3.10;;;;;;;-144.05;67.46;56984.78;5013426;28;20041;-84
2023/12/10 08:56:55;;;;;;;17.42;3.55;;;;;;;-144.05;67.34;56999.63;4996739;28;20042;-85
2023/12/10 08:59:21;;;;;;;15.60;3.08;;;;;;;-144.05;68.10;56967.78;4996296;28;20038;-84
2023/12/10 09:01:47;;;;;;;12.82;2.88;;;;;;;-144.05;68.02;57016.63;4994869;28;20399;-84
2023/12/10 09:04:13;;;;;;;13.82;2.83;;;;;;;-144.05;68.94;57001.75;4996050;28;20030;-83
2023/12/10 09:06:40;;;;;;;15.75;2.90;;;;;;;-144.05;68.64;57020.88;4996186;28;20030;-85
2023/12/10 09:09:06;;;;;;;21.75;2.92;;;;;;;-144.05;68.75;57008.13;4994397;28;20106;-87
2023/12/10 09:11:32;;;;;;;12.90;2.45;;;;;;;-144.05;69.41;57001.75;4994615;28;20027;-82
2023/12/10 09:13:59;;;;;;;14.05;2.97;;;;;;;-144.05;70.03;57020.88;4994851;28;20023;-84
2023/12/10 09:16:26;;;;;;;21.23;2.88;;;;;;;-144.05;69.75;56982.66;4994145;28;20030;-84
2023/12/10 09:18:52;;;;;;;14.82;3.05;;;;;;;-144.05;69.95;57018.75;4995750;28;20046;-84
2023/12/10 09:21:18;;;;;;;14.00;2.78;;;;;;;-144.05;70.31;56976.28;4994089;28;20111;-85
2023/12/10 09:23:45;;;;;;;19.80;3.20;;;;;;;-144.05;71.57;56961.41;4994834;28;20050;-86
2023/12/10 09:26:11;;;;;;;11.02;2.60;;;;;;;-144.05;71.30;56989.00;4995732;28;20034;-83
2023/12/10 09:28:37;;;;;;;19.90;4.88;;;;;;;-144.05;71.46;56976.28;4995621;28;20108;-85
2023/12/10 09:31:04;;;;;;;20.50;2.83;;;;;;;-144.05;71.15;56995.38;4996437;28;20464;-83
2023/12/10 09:33:31;;;;;;;11.48;2.60;;;;;;;-144.05;71.28;57023.00;4993832;28;20030;-85
2023/12/10 09:35:57;;;;;;;19.50;3.25;;;;;;;-144.05;70.34;57027.25;4993521;28;20027;-81
2023/12/10 09:38:24;;;;;;;18.60;4.10;;;;;;;-144.05;69.99;56974.16;4994236;28;20034;-84
2023/12/10 09:40:50;;;;;;;20.63;3.35;;;;;;;-144.05;69.08;57008.13;4993185;28;20034;-83
2023/12/10 09:43:16;;;;;;;17.52;3.20;;;;;;;-144.05;69.16;57014.50;4995192;28;20168;-86
2023/12/10 09:45:42;;;;;;;21.52;3.30;;;;;;;-144.05;68.61;56993.25;4995105;28;20041;-84
2023/12/10 09:48:09;;;;;;;17.98;3.33;;;;;;;-144.05;69.25;56978.41;4995355;28;20038;-84
2023/12/10 09:50:38;;;;;;;17.80;3.20;;;;;;;-144.05;69.30;56999.63;5017755;28;20031;-84
2023/12/10 09:53:06;;;;;;;16.00;2.78;;;;;;;-144.05;68.92;56989.00;5008033;28;20042;-84
2023/12/10 09:55:33;;;;;;;25.85;4.15;;;;;;;-144.05;69.54;57016.63;5020038;28;20031;-84
2023/12/10 09:57:59;;;;;;;15.77;2.83;;;;;;;-144.05;70.03;57003.88;5004331;28;20128;-82
2023/12/10 10:00:26;;;;;;;20.77;3.95;;;;;;;-144.05;69.92;56984.78;5000065;28;20066;-85
2023/12/10 10:03:03;;;;;;;16.58;3.83;;;;;;;-144.05;69.91;56991.13;5014900;28;20077;-86
2023/12/10 10:05:29;;;;;;;18.15;3.92;;;;;;;-144.05;69.46;56993.25;4998993;28;20027;-88
2023/12/10 10:07:55;;;;;;;18.20;2.97;;;;;;;-144.05;69.31;56959.28;5000170;28;20067;-86
2023/12/10 10:10:25;;;;;;;14.88;2.97;;;;;;;-144.05;69.13;56991.13;5000038;28;20022;-82
2023/12/10 10:12:54;;;;;;;13.65;3.03;;;;;;;-144.05;68.81;57006.00;4999473;28;20022;-86
2023/12/10 10:15:30;;;;;;;14.13;2.60;;;;;;;-144.05;68.40;57001.75;4998040;28;20038;-85
2023/12/10 10:18:00;;;;;;;17.05;3.17;;;;;;;-144.05;69.12;57012.38;4999677;28;20056;-85
2023/12/10 10:20:26;;;;;;;21.38;3.35;;;;;;;-144.05;68.48;56965.66;4999164;28;20041;-84
2023/12/10 10:22:56;;;;;;;13.90;2.63;;;;;;;-144.05;68.75;56993.25;4999354;28;20058;-85
2023/12/10 10:25:22;;;;;;;17.33;3.10;;;;;;;-144.05;68.44;56999.63;5016078;28;20066;-84
2023/12/10 10:27:50;;;;;;;15.02;2.75;;;;;;;-144.05;67.63;56999.63;4996537;28;20034;-83
2023/12/10 10:30:17;;;;;;;17.35;3.03;;;;;;;-144.05;67.49;56978.41;4988403;28;20038;-87
2023/12/10 10:32:46;;;;;;;22.00;3.80;;;;;;;-144.05;67.16;56995.38;5001762;28;20030;-86
2023/12/10 10:35:12;;;;;;;16.13;3.25;;;;;;;-144.05;66.76;57025.13;5013938;28;20712;-87
2023/12/10 10:37:39;;;;;;;18.50;3.25;;;;;;;-144.05;66.52;56980.53;5001490;28;20400;-81
2023/12/10 10:40:06;;;;;;;17.02;3.05;;;;;;;-144.05;66.14;57014.50;5002110;28;20075;-86
2023/12/10 10:42:32;;;;;;;19.15;4.18;;;;;;;-144.05;66.13;57003.88;5001591;28;20447;-87
2023/12/10 10:44:59;;;;;;;18.60;3.45;;;;;;;-144.05;66.46;56980.53;4998324;28;20050;-83
2023/12/10 10:47:28;;;;;;;18.10;3.63;;;;;;;-144.05;66.31;57018.75;4998217;28;20030;-79
2023/12/10 10:49:58;;;;;;;17.98;3.00;;;;;;;-144.05;66.41;56976.28;5019179;28;20045;-85
2023/12/10 10:52:29;;;;;;;24.30;3.90;;;;;;;-144.05;65.97;56959.28;5026749;28;20081;-88
2023/12/10 10:54:56;;;;;;;18.58;2.85;;;;;;;-144.05;65.87;56986.91;5005391;28;20065;-84
2023/12/10 10:57:34;;;;;;;17.38;3.33;;;;;;;-144.05;65.62;56986.91;4997646;28;20539;-84
2023/12/10 11:00:20;;;;;;;17.83;3.47;;;;;;;-144.05;65.56;56967.78;4997544;28;20061;-85
2023/12/10 11:02:49;;;;;;;17.20;3.30;;;;;;;-144.05;65.89;57006.00;4997744;28;20030;-87
2023/12/10 11:05:37;;;;;;;19.98;4.13;;;8.30;99.90;;;-144.05;66.07;57044.25;5003188;28;20042;-86